createdAt,value
2022-10-23T00:03:39.923Z,98918.33
2022-10-23T00:08:42.180Z,98924.19
2022-10-23T00:13:44.398Z,98925.13
2022-10-23T00:18:46.305Z,98923.53
2022-10-23T00:23:48.150Z,98925.54
2022-10-23T00:28:52.461Z,98924.81
2022-10-23T00:33:54.654Z,98926.98
2022-10-23T00:38:56.870Z,98925.18
2022-10-23T00:43:58.631Z,98929.23
2022-10-23T00:49:01.267Z,98933.25
2022-10-23T00:54:24.002Z,98933.53
2022-10-23T00:59:27.537Z,98929.63
2022-10-23T01:04:30.308Z,98931.75
2022-10-23T01:09:36.790Z,98934.86
2022-10-23T01:15:05.412Z,98938.91
2022-10-23T01:20:36.610Z,98943.79
2022-10-23T01:26:02.585Z,98947.34
2022-10-23T01:31:11.725Z,98943.23
2022-10-23T01:36:16.790Z,98939.40
2022-10-23T01:41:27.973Z,98934.67
2022-10-23T01:46:31.489Z,98939.40
2022-10-23T01:51:37.072Z,98944.52
2022-10-23T01:56:45.083Z,98947.48
2022-10-23T02:01:51.334Z,98944.19
2022-10-23T02:06:53.970Z,98945.67
2022-10-23T02:12:07.110Z,98943.63
2022-10-23T02:17:26.878Z,98944.01
2022-10-23T02:22:38.334Z,98947.84
2022-10-23T02:27:50.992Z,98954.35
2022-10-23T02:32:55.441Z,98955.44
2022-10-23T02:37:59.607Z,98952.29
2022-10-23T02:43:10.044Z,98956.55
2022-10-23T02:48:19.072Z,98955.20
2022-10-23T02:53:48.398Z,98950.10
2022-10-23T02:59:43.772Z,98953.17
2022-10-23T03:04:47.135Z,98957.09
2022-10-23T03:09:49.316Z,98964.77
2022-10-23T03:14:51.116Z,98967.95
2022-10-23T03:19:53.101Z,98968.66
2022-10-23T03:24:54.847Z,98972.27
2022-10-23T03:29:56.588Z,98971.80
2022-10-23T03:34:58.382Z,98974.44
2022-10-23T03:40:00.129Z,98967.30
2022-10-23T03:45:04.948Z,98970.29
2022-10-23T03:50:10.679Z,98971.14
2022-10-23T03:55:13.889Z,98974.18
2022-10-23T04:00:15.828Z,98971.39
2022-10-23T04:05:21.971Z,98964.33
2022-10-23T04:10:28.271Z,98962.30
2022-10-23T04:15:30.543Z,98960.20
2022-10-23T04:20:32.789Z,98964.72
2022-10-23T04:25:37.219Z,98960.23
2022-10-23T04:30:39.318Z,98960.64
2022-10-23T04:35:41.264Z,98958.11
2022-10-23T04:40:43.114Z,98957.17
2022-10-23T04:45:45.027Z,98959.50
2022-10-23T04:50:58.786Z,98957.19
2022-10-23T04:56:07.184Z,98959.00
2022-10-23T05:01:22.535Z,98963.27
2022-10-23T05:06:24.597Z,98966.26
2022-10-23T05:11:56.548Z,98959.97
2022-10-23T05:17:02.810Z,98965.23
2022-10-23T05:22:05.917Z,98968.91
2022-10-23T05:27:28.335Z,98983.02
2022-10-23T05:32:32.649Z,98998.33
2022-10-23T05:37:34.671Z,98996.36
2022-10-23T05:42:47.618Z,98996.31
2022-10-23T05:48:01.332Z,98990.59
2022-10-23T05:53:38.870Z,99000.21
2022-10-23T05:58:50.521Z,99008.14
2022-10-23T06:04:05.458Z,99020.21
2022-10-23T06:09:25.655Z,99019.88
2022-10-23T06:14:30.777Z,99029.55
2022-10-23T06:19:33.173Z,99041.92
2022-10-23T06:24:35.068Z,99045.05
2022-10-23T06:29:39.778Z,99037.11
2022-10-23T06:34:42.100Z,99043.50
2022-10-23T06:39:44.122Z,99047.81
2022-10-23T06:44:52.007Z,99053.92
2022-10-23T06:50:10.617Z,99050.00
2022-10-23T06:55:15.300Z,99043.57
2022-10-23T07:00:17.334Z,99041.75
2022-10-23T07:05:24.658Z,99040.03
2022-10-23T07:10:27.759Z,99040.40
2022-10-23T07:15:32.698Z,99043.53
2022-10-23T07:20:35.713Z,99051.53
2022-10-23T07:25:38.032Z,99056.55
2022-10-23T07:30:41.402Z,99051.38
2022-10-23T07:35:47.415Z,99043.20
2022-10-23T07:40:57.767Z,99049.29
2022-10-23T07:45:59.770Z,99056.91
2022-10-23T07:51:12.446Z,99067.98
2022-10-23T07:56:23.451Z,99073.26
2022-10-23T08:01:50.575Z,99065.89
2022-10-23T08:06:56.409Z,99059.86
2022-10-23T08:11:59.014Z,99058.88
2022-10-23T08:22:47.134Z,99074.55
2022-10-23T08:27:53.262Z,99083.64
2022-10-23T08:32:55.291Z,99079.84
2022-10-23T08:37:57.283Z,99093.08
2022-10-23T08:43:12.067Z,99100.16
2022-10-23T08:48:30.237Z,99096.57
2022-10-23T08:54:21.555Z,99111.98
2022-10-23T08:59:44.063Z,99112.33
2022-10-23T09:04:48.891Z,99120.81
2022-10-23T09:10:03.690Z,99124.23
2022-10-23T09:15:21.456Z,99123.84
2022-10-23T09:20:27.280Z,99118.80
2022-10-23T09:25:34.103Z,99119.65
2022-10-23T09:30:37.057Z,99119.64
2022-10-23T09:35:38.865Z,99123.58
2022-10-23T09:40:43.151Z,99127.80
2022-10-23T09:46:03.058Z,99122.41
2022-10-23T09:51:17.968Z,99120.11
2022-10-23T09:56:28.124Z,99119.91
2022-10-23T10:01:33.313Z,99116.52
2022-10-23T10:06:58.482Z,99111.85
2022-10-23T10:12:22.944Z,99101.21
2022-10-23T10:17:43.735Z,99092.38
2022-10-23T10:23:13.398Z,99072.70
2022-10-23T10:28:47.427Z,99071.76
2022-10-23T10:34:00.762Z,99067.45
2022-10-23T10:39:09.074Z,99057.40
2022-10-23T10:44:34.206Z,99054.34
2022-10-23T10:49:53.824Z,99056.37
2022-10-23T10:55:28.613Z,99048.08
2022-10-23T11:00:33.238Z,99039.48
2022-10-23T11:05:40.977Z,99030.69
2022-10-23T11:10:46.753Z,99025.23
2022-10-23T11:15:48.928Z,99019.56
2022-10-23T11:21:12.539Z,99010.34
2022-10-23T11:26:39.347Z,99006.38
2022-10-23T11:31:56.548Z,99003.83
2022-10-23T11:37:04.908Z,98995.90
2022-10-23T11:42:06.946Z,98979.21
2022-10-23T11:47:38.217Z,98967.75
2022-10-23T11:53:13.576Z,98954.60
2022-10-23T11:58:22.185Z,98942.73
2022-10-23T12:03:52.936Z,98939.77
2022-10-23T12:09:00.956Z,98934.60
2022-10-23T12:14:02.775Z,98933.37
2022-10-23T12:19:19.823Z,98934.36
2022-10-23T12:24:55.724Z,98933.52
2022-10-23T12:30:03.819Z,98925.75
2022-10-23T12:35:18.264Z,98922.13
2022-10-23T12:40:20.601Z,98915.90
2022-10-23T12:45:29.648Z,98911.31
2022-10-23T12:50:33.548Z,98903.90
2022-10-23T12:55:53.202Z,98898.52
2022-10-23T13:00:57.392Z,98899.42
2022-10-23T13:06:04.222Z,98905.32
2022-10-23T13:11:08.957Z,98902.33
2022-10-23T13:16:19.445Z,98894.15
2022-10-23T13:21:27.227Z,98886.92
2022-10-23T13:26:35.930Z,98883.83
2022-10-23T13:31:37.844Z,98885.36
2022-10-23T13:36:55.614Z,98883.20
2022-10-23T13:42:01.883Z,98870.84
2022-10-23T13:47:04.759Z,98873.46
2022-10-23T13:52:12.052Z,98878.72
2022-10-23T13:57:15.513Z,98872.16
2022-10-23T14:02:23.108Z,98868.27
2022-10-23T14:07:24.964Z,98859.83
2022-10-23T14:12:26.757Z,98856.94
2022-10-23T14:17:28.583Z,98861.77
2022-10-23T14:22:30.456Z,98864.68
2022-10-23T14:27:32.361Z,98859.84
2022-10-23T14:32:34.170Z,98862.16
2022-10-23T14:37:35.996Z,98863.75
2022-10-23T14:42:38.044Z,98856.43
2022-10-23T14:47:39.823Z,98848.55
2022-10-23T14:52:41.574Z,98845.75
2022-10-23T14:57:43.645Z,98839.20
2022-10-23T15:02:45.823Z,98836.09
2022-10-23T15:07:47.968Z,98836.13
2022-10-23T15:12:49.783Z,98830.52
2022-10-23T15:17:51.588Z,98824.65
2022-10-23T15:22:53.465Z,98829.13
2022-10-23T15:27:55.267Z,98824.45
2022-10-23T15:32:57.153Z,98817.21
2022-10-23T15:37:58.904Z,98823.12
2022-10-23T15:43:00.705Z,98822.26
2022-10-23T15:48:02.590Z,98809.92
2022-10-23T15:53:04.805Z,98812.70
2022-10-23T15:58:06.880Z,98823.46
2022-10-23T16:03:08.724Z,98833.27
2022-10-23T16:08:10.745Z,98836.49
2022-10-23T16:13:12.564Z,98846.23
2022-10-23T16:18:16.165Z,98838.41
2022-10-23T16:23:17.922Z,98841.77
2022-10-23T16:28:20.018Z,98841.11
2022-10-23T16:33:21.831Z,98842.27
2022-10-23T16:38:23.601Z,98845.61
2022-10-23T16:43:26.343Z,98850.70
2022-10-23T16:48:52.659Z,98847.23
2022-10-23T16:53:55.416Z,98858.61
2022-10-23T17:04:08.338Z,98878.31
2022-10-23T17:09:10.220Z,98879.11
2022-10-23T17:14:18.771Z,98873.96
2022-10-23T17:19:43.742Z,98863.77
2022-10-23T17:24:48.884Z,98870.35
2022-10-23T17:29:53.347Z,98865.05
2022-10-23T17:34:55.145Z,98858.58
2022-10-23T17:40:00.167Z,98856.29
2022-10-23T17:45:03.276Z,98851.87
2022-10-23T17:50:09.509Z,98843.70
2022-10-23T17:55:11.573Z,98845.39
2022-10-23T18:00:13.648Z,98836.73
2022-10-23T18:05:15.479Z,98838.41
2022-10-23T18:10:17.404Z,98829.34
2022-10-23T18:15:19.272Z,98818.77
2022-10-23T18:20:21.345Z,98822.89
2022-10-23T18:25:23.059Z,98811.12
2022-10-23T18:30:24.975Z,98806.66
2022-10-23T18:35:26.880Z,98800.11
2022-10-23T18:40:29.217Z,98795.22
2022-10-23T18:45:33.108Z,98793.13
2022-10-23T18:50:38.322Z,98802.67
2022-10-23T18:55:49.431Z,98805.05
2022-10-23T19:00:51.337Z,98809.42
2022-10-23T19:05:53.627Z,98806.70
2022-10-23T19:10:57.760Z,98809.70
2022-10-23T19:15:59.559Z,98805.73
2022-10-23T19:21:04.961Z,98812.02
2022-10-23T19:26:09.440Z,98809.38
2022-10-23T19:31:12.411Z,98808.77
2022-10-23T19:36:14.497Z,98812.95
2022-10-23T19:41:18.234Z,98810.24
2022-10-23T19:46:20.022Z,98796.95
2022-10-23T19:51:21.857Z,98781.80
2022-10-23T19:56:24.124Z,98779.90
2022-10-23T20:01:28.694Z,98780.52
2022-10-23T20:06:37.149Z,98772.58
2022-10-23T20:11:39.942Z,98769.05
2022-10-23T20:16:48.067Z,98759.59
2022-10-23T20:21:51.896Z,98749.64
2022-10-23T20:26:55.949Z,98744.47
2022-10-23T20:31:57.864Z,98730.14
2022-10-23T20:37:00.788Z,98732.06
2022-10-23T20:42:03.655Z,98739.97
2022-10-23T20:47:05.429Z,98757.61
2022-10-23T20:52:07.154Z,98749.73
2022-10-23T20:57:09.023Z,98744.75
2022-10-23T21:02:10.818Z,98730.67
2022-10-23T21:07:12.919Z,98733.40
2022-10-23T21:12:16.692Z,98738.58
2022-10-23T21:17:18.811Z,98738.88
2022-10-23T21:22:20.558Z,98744.61
2022-10-23T21:27:22.688Z,98736.02
2022-10-23T21:32:24.495Z,98727.03
2022-10-23T21:37:26.503Z,98728.95
2022-10-23T21:47:33.453Z,98703.67
2022-10-23T21:52:35.260Z,98706.02
2022-10-23T21:57:37.183Z,98696.78
2022-10-23T22:02:38.945Z,98694.98
2022-10-23T22:07:40.795Z,98703.05
2022-10-23T22:12:42.710Z,98701.31
2022-10-23T22:17:45.010Z,98694.86
2022-10-23T22:22:46.858Z,98687.30
2022-10-23T22:27:48.667Z,98691.30
2022-10-23T22:32:50.526Z,98683.14
2022-10-23T22:37:52.625Z,98680.02
2022-10-23T22:42:54.493Z,98684.04
2022-10-23T22:47:56.258Z,98677.45
2022-10-23T22:52:58.333Z,98665.66
2022-10-23T22:58:00.085Z,98650.48
2022-10-23T23:03:01.926Z,98645.82
2022-10-23T23:08:03.783Z,98653.30
2022-10-23T23:13:08.387Z,98648.50
2022-10-23T23:18:10.188Z,98669.88
2022-10-23T23:23:14.203Z,98654.64
2022-10-23T23:28:18.539Z,98642.83
2022-10-23T23:33:22.331Z,98631.80
2022-10-23T23:38:24.265Z,98637.44
2022-10-23T23:43:26.035Z,98635.51
2022-10-23T23:48:28.005Z,98637.27
2022-10-23T23:53:29.774Z,98642.26
2022-10-23T23:58:31.538Z,98650.30
